»·PEaware :: ASA3002 KSEA-KPDX

ASA3002 :: KSEA-KPDX

FLIGHT INFORMATION

Flight Status: Arrived
Operator:
Alaska Airlines
More flights by this operator :: More flights under this callsign
Pilot: Kyle M. (9350)
Aircraft: BOEING 737-300
(B733)
More flights by this aircraft type
Origin: KSEA Seattle-Tacoma Intl
United States
Destination: KPDX Portland Intl
United States
More flights between these airports :: More routes between these airports
Route: +SEA7 SEA BUWZO KRATR2
File this flight plan on PilotEdge
Remarks: RMK / SIMBRIEF
Altitude:
(Current/Filed)
21,000ft
Speed:
(Current/Filed)
416kts
Departed: 26-Jul-20 09:53 PM
Arrived: 26-Jul-20 10:24 PM
Distance/Time
Traveled:
112nm/0:30
Distance/Time
To Go:
Arrived

Flight Plot

Page will automatically refresh every two minutes.


Map Options




Map Legend


Flown Route
Filed Route
Departure Airport
Arrival Airport
Navaid (VOR, NDB)
Fix

Horizontal Profiles

Position Reports

Time Latitude Longitude Heading Altitude Ground
Speed
26-Jul-20 21:30 47.441246 -122.303154 289 384ft 0kts
26-Jul-20 21:31 47.441246 -122.303154 289 384ft 0kts
26-Jul-20 21:32 47.441246 -122.303154 289 384ft 0kts
26-Jul-20 21:33 47.441246 -122.303154 289 384ft 0kts
26-Jul-20 21:34 47.441246 -122.303154 289 384ft 0kts
26-Jul-20 21:35 47.441246 -122.303154 289 384ft 0kts
26-Jul-20 21:36 47.441246 -122.303154 289 384ft 0kts
26-Jul-20 21:37 47.441246 -122.303154 289 384ft 0kts
26-Jul-20 21:38 47.441246 -122.303154 289 384ft 0kts
26-Jul-20 21:39 47.441246 -122.303154 289 384ft 0kts
26-Jul-20 21:40 47.441246 -122.303154 289 384ft 0kts
26-Jul-20 21:41 47.441246 -122.303154 289 384ft 0kts
26-Jul-20 21:42 47.441246 -122.303154 289 384ft 0kts
26-Jul-20 21:43 47.441246 -122.303154 289 384ft 0kts
26-Jul-20 21:44 47.441246 -122.303154 289 384ft 0kts
26-Jul-20 21:45 47.441219 -122.303041 287 384ft 2kts
26-Jul-20 21:46 47.441371 -122.302493 178 385ft 0kts
26-Jul-20 21:47 47.441444 -122.302507 174 385ft 0kts
26-Jul-20 21:48 47.441424 -122.302504 174 385ft 1kts
26-Jul-20 21:49 47.440001 -122.304469 262 379ft 13kts
26-Jul-20 21:50 47.437549 -122.306397 180 368ft 16kts
26-Jul-20 21:51 47.437028 -122.308024 0 362ft 11kts
26-Jul-20 21:52 47.469660 -122.308359 357 1625ft 174kts
26-Jul-20 21:53 47.526389 -122.312608 357 4167ft 223kts
26-Jul-20 21:54 47.578267 -122.363926 275 6634ft 278kts
26-Jul-20 21:55 47.529164 -122.438920 171 9888ft 285kts
26-Jul-20 21:56 47.446926 -122.398710 173 11891ft 340kts
26-Jul-20 21:57 47.350933 -122.381785 173 14877ft 352kts
26-Jul-20 21:58 47.251403 -122.363599 173 17522ft 365kts
26-Jul-20 21:59 47.148322 -122.344787 173 19935ft 377kts
26-Jul-20 22:00 47.042100 -122.325473 173 21045ft 388kts
26-Jul-20 22:01 46.934433 -122.308823 179 21028ft 385kts
26-Jul-20 22:02 46.827710 -122.309408 179 21025ft 385kts
26-Jul-20 22:03 46.720313 -122.307912 179 21004ft 385kts
26-Jul-20 22:04 46.612725 -122.308345 179 21000ft 384kts
26-Jul-20 22:05 46.505879 -122.308627 179 20109ft 378kts
26-Jul-20 22:06 46.401703 -122.308939 178 17870ft 366kts
26-Jul-20 22:07 46.301402 -122.309231 179 15894ft 352kts
26-Jul-20 22:08 46.207446 -122.336903 200 13923ft 342kts
26-Jul-20 22:09 46.119016 -122.386436 200 12981ft 345kts
26-Jul-20 22:10 46.027657 -122.436228 199 10813ft 354kts
26-Jul-20 22:11 45.940386 -122.483089 195 9242ft 305kts
26-Jul-20 22:12 45.863339 -122.466858 165 7801ft 270kts
26-Jul-20 22:13 45.790918 -122.443718 164 6104ft 257kts
26-Jul-20 22:14 45.725798 -122.423051 163 6018ft 225kts
26-Jul-20 22:15 45.663821 -122.403378 164 5996ft 225kts
26-Jul-20 22:16 45.608481 -122.369455 124 5997ft 217kts
26-Jul-20 22:18 45.573034 -122.298576 124 5991ft 217kts
26-Jul-20 22:19 45.523959 -122.261713 206 5376ft 235kts
26-Jul-20 22:20 45.509195 -122.347836 284 4069ft 241kts
26-Jul-20 22:21 45.531288 -122.432918 299 2509ft 210kts
26-Jul-20 22:22 45.557019 -122.498930 298 1303ft 164kts
26-Jul-20 22:23 45.577344 -122.550884 300 342ft 131kts
26-Jul-20 22:24 45.591832 -122.588393 289 29ft 32kts
26-Jul-20 22:25 45.592206 -122.593113 232 29ft 5kts
26-Jul-20 22:26 45.593270 -122.597083 300 29ft 14kts
26-Jul-20 22:27 45.591306 -122.601951 223 29ft 17kts

Navigation Log

Ident Type
Flight plan parsing failed, navigation log unavailable